Greenbrier Valley Airport
KLWB : now visible

Airfield :











YOU CAN JOIN US ON...

 
LOGIN :

Register | Disclaimer

   EN    FR    IT 

 









Legend :    VFR   Marginal VFR   IFR   Intensive IFR   Very Intensive IFR
Visi :
Ceiling :
>= 8 km
>= 3000ft
5 to 8 km
1000 to 3000 ft
1500m to 5 km
500 to 1000 ft
800 to 1500m
200 to 500 ft
< 800m
< 200 ft
Symbols :   Thunderstorms  Fog  Heavy snow  Heavy precipitations  Wind > 20 kt







- Airport Elevation : 2302 ft


KLWB - Greenbrier Valley

CURRENT METAR :
  • 181930Z AUTO 00000KT 10SM SCT028 SCT037 BKN090 27/22 A3005 RMK AO2 LTG DSNT SW T02660219

EXPIRED METARs :
  • 181855Z AUTO 19004KT 7SM -VCTSDZ SCT013 BKN023 OVC048 25/23 A3006 RMK AO2 LTG DSNT E AND SW T02530230
  • 181810Z AUTO 24004KT 10SM SCT021 BKN029 OVC070 26/22 A3007 RMK AO2 LTG DSNT NE AND S T02550220
  • 181750Z AUTO 23007KT 10SM -RA SCT017 BKN029 BKN041 25/22 A3007 RMK AO2 LTG DSNT S T02520221 10271 20226
  • 181730Z AUTO 22007KT 10SM SCT041 SCT049 BKN060 27/23 A3006 RMK AO2 LTG DSNT W T02650225
  • 181713Z AUTO 21004KT 24/22 A3007 RMK AO2 LTG DSNT S AND SW PWINO
  • 181650Z AUTO 22007KT 10SM SCT021 SCT033 BKN100 24/22 A3007 RMK AO2 T02400221

TAF KLWB
Valid from the 18 at 18:00 until the 19 at 18:00 UTC


181720Z 1818/1918 27005KT P6SM -SHRA VCTS SCT025 BKN040CB
TEMPO 1818/1820 2SM TSRA OVC025CB
FM182200 28006KT P6SM SCT050
FM191000 00000KT 3SM BR BKN015
FM191400 25003KT P6SM BKN025
KZDC FIR / North America



MET'MAP, your aeronautical weather chart ! - Copyright ORBIFLY December 2007 - Disclaimer

ORBIFLY MET'MAP TEAM :

Programming & Development : Alexandra Zaïnal
Concept & Development : Baudouin d'Aumeries
Co-Development & Prog : Marc-Olivier Méhu
Technical & hardware support : Manuel Goepfert

Contact : metmap@orbifly.com




SOURCES & CREDITS :

   NOAA       Earth
Advisory